Time;durP1;ratioP1;P1;durP2;ratioP2;P2;SDS_P1;SDS_P2;PMS_P1;PMS_P2;Temp;Humidity;BMP_temperature;BMP_pressure;BME280_temperature;BME280_humidity;BME280_pressure;Samples;Min_cycle;Max_cycle;Signal;HPM_P1;HPM_P2
2023/04/29 00:01:19;;;;;;;6.20;4.40;;;;;;;5.41;71.96;99594.81;4921601;29;20032;-87
2023/04/29 00:03:45;;;;;;;11.00;4.60;;;;;;;5.45;72.10;99620.81;4918064;29;20047;-86
2023/04/29 00:06:10;;;;;;;6.93;4.20;;;;;;;5.48;71.94;99619.56;4910847;29;20032;-87
2023/04/29 00:08:36;;;;;;;12.25;3.88;;;;;;;5.40;72.25;99617.22;4889917;29;20115;-87
2023/04/29 00:11:01;;;;;;;7.30;4.25;;;;;;;5.49;72.04;99626.50;4890865;29;20082;-87
2023/04/29 00:13:27;;;;;;;10.90;4.53;;;;;;;5.36;72.54;99621.38;4905917;29;20076;-86
2023/04/29 00:15:52;;;;;;;7.53;4.60;;;;;;;5.38;72.72;99625.44;4890506;29;20036;-87
2023/04/29 00:18:17;;;;;;;8.43;5.25;;;;;;;5.38;72.48;99627.31;4906235;29;20033;-87
2023/04/29 00:20:43;;;;;;;9.63;5.00;;;;;;;5.37;71.96;99618.47;4922013;29;20035;-86
2023/04/29 00:23:08;;;;;;;7.78;4.72;;;;;;;5.52;71.97;99630.56;4906115;29;20040;-87
2023/04/29 00:25:34;;;;;;;6.93;4.18;;;;;;;5.39;72.09;99626.25;4922474;29;20048;-87
2023/04/29 00:28:01;;;;;;;7.10;4.50;;;;;;;5.25;72.90;99614.97;4906024;29;20040;-87
2023/04/29 00:30:27;;;;;;;8.13;4.07;;;;;;;5.22;72.81;99628.75;4906226;29;20100;-87
2023/04/29 00:32:53;;;;;;;7.70;4.30;;;;;;;5.09;73.23;99603.06;4905972;29;20032;-86
2023/04/29 00:35:20;;;;;;;8.13;3.88;;;;;;;5.30;72.97;99620.44;4906038;29;20438;-86
2023/04/29 00:37:47;;;;;;;7.82;4.22;;;;;;;5.19;72.67;99610.53;4890639;29;20047;-86
2023/04/29 00:40:13;;;;;;;6.72;3.88;;;;;;;5.17;72.50;99607.28;4905294;29;20065;-87
2023/04/29 00:42:39;;;;;;;8.50;4.07;;;;;;;5.17;72.98;99604.63;4890516;29;20055;-87
2023/04/29 00:45:05;;;;;;;5.50;3.90;;;;;;;5.09;72.42;99608.41;4904845;29;20055;-88
2023/04/29 00:47:31;;;;;;;8.75;4.18;;;;;;;5.01;73.31;99598.84;4888846;29;20042;-87
2023/04/29 00:49:56;;;;;;;8.52;4.43;;;;;;;5.04;73.06;99606.44;4906058;29;20055;-87
2023/04/29 00:52:21;;;;;;;7.22;4.85;;;;;;;5.01;73.10;99593.53;4921849;29;20025;-86
2023/04/29 00:54:47;;;;;;;7.40;5.38;;;;;;;5.09;73.16;99600.41;4921105;29;20028;-86
2023/04/29 00:57:13;;;;;;;7.18;4.93;;;;;;;4.99;73.02;99594.78;4921282;29;20036;-87
2023/04/29 00:59:39;;;;;;;8.95;4.82;;;;;;;4.86;73.06;99591.25;4921550;29;20047;-87
2023/04/29 01:02:05;;;;;;;7.03;5.05;;;;;;;4.91;73.24;99587.09;4921344;29;20036;-87
2023/04/29 01:04:30;;;;;;;6.47;4.50;;;;;;;4.76;73.45;99574.19;4920215;29;20072;-87
2023/04/29 01:07:17;;;;;;;9.07;4.55;;;;;;;4.74;73.86;99573.59;4920159;29;20498;-87
2023/04/29 01:10:13;;;;;;;8.00;5.38;;;;;;;4.96;73.45;99595.22;4889547;29;20040;-87
2023/04/29 01:12:45;;;;;;;10.50;5.10;;;;;;;4.86;73.27;99580.59;4936690;29;20250;-87
2023/04/29 01:15:24;;;;;;;9.00;5.32;;;;;;;4.89;74.20;99584.66;4921415;29;20055;-87
2023/04/29 01:17:50;;;;;;;7.55;4.85;;;;;;;4.91;73.84;99589.78;4905432;29;20051;-86
2023/04/29 01:20:17;;;;;;;7.30;4.90;;;;;;;4.84;73.55;99579.19;4920488;29;20043;-87
2023/04/29 01:22:42;;;;;;;8.43;4.32;;;;;;;4.80;73.67;99570.81;4919948;29;20119;-86
2023/04/29 01:25:08;;;;;;;6.70;4.75;;;;;;;4.78;73.48;99564.91;4920204;29;20056;-87
2023/04/29 01:27:46;;;;;;;6.53;4.65;;;;;;;4.90;73.38;99586.31;4889190;29;20438;-87
2023/04/29 01:30:16;;;;;;;9.23;4.70;;;;;;;4.77;73.74;99563.28;4937094;28;20188;-87
2023/04/29 01:32:48;;;;;;;7.30;4.68;;;;;;;4.82;73.97;99574.09;4920575;29;20072;-88
2023/04/29 01:35:19;;;;;;;6.18;4.43;;;;;;;4.90;73.56;99570.28;4922317;29;20044;-87
2023/04/29 01:38:02;;;;;;;6.07;4.32;;;;;;;4.90;73.61;99572.13;4921463;29;20043;-87
2023/04/29 01:40:37;;;;;;;5.72;4.47;;;;;;;4.83;73.41;99559.69;4904580;29;20064;-86
2023/04/29 01:43:04;;;;;;;7.85;5.03;;;;;;;4.81;73.60;99564.44;4918728;29;20116;-86
2023/04/29 01:45:30;;;;;;;9.20;4.68;;;;;;;4.80;73.30;99568.16;4884811;29;20041;-87
2023/04/29 01:47:55;;;;;;;8.48;4.68;;;;;;;4.83;73.06;99566.88;4896422;29;20067;-86
2023/04/29 01:50:21;;;;;;;8.48;4.82;;;;;;;4.70;73.00;99562.53;4903993;29;20036;-88
2023/04/29 01:52:47;;;;;;;6.95;3.88;;;;;;;4.72;73.22;99563.13;4919663;29;20514;-86
2023/04/29 01:55:13;;;;;;;7.45;4.68;;;;;;;4.71;73.09;99563.34;4921131;29;20514;-86
2023/04/29 01:57:38;;;;;;;8.27;4.05;;;;;;;4.56;73.39;99555.75;4904466;29;20021;-87
2023/04/29 02:00:04;;;;;;;6.90;4.60;;;;;;;4.63;73.15;99559.16;4889361;29;20048;-87
2023/04/29 02:02:30;;;;;;;8.90;4.55;;;;;;;4.57;73.20;99546.72;4904421;29;20055;-87
2023/04/29 02:04:55;;;;;;;7.13;5.22;;;;;;;4.47;73.90;99544.59;4932724;29;20035;-87
2023/04/29 02:07:21;;;;;;;9.95;4.80;;;;;;;4.54;73.60;99552.50;4926539;28;20046;-87
2023/04/29 02:09:46;;;;;;;5.50;4.60;;;;;;;4.51;73.81;99553.75;4921913;29;20465;-87
2023/04/29 02:12:12;;;;;;;8.77;4.15;;;;;;;4.49;73.69;99555.03;4919887;29;20090;-87
2023/04/29 02:14:38;;;;;;;7.88;4.78;;;;;;;4.48;73.66;99556.06;4943044;29;20030;-87
2023/04/29 02:17:03;;;;;;;6.13;4.53;;;;;;;4.36;74.01;99546.16;4942433;29;20042;-86
2023/04/29 02:19:29;;;;;;;6.60;4.38;;;;;;;4.43;73.72;99560.19;4942270;29;20031;-87
2023/04/29 02:21:54;;;;;;;5.85;3.88;;;;;;;4.49;74.01;99557.69;4926387;29;20035;-86
2023/04/29 02:24:20;;;;;;;7.75;4.65;;;;;;;4.55;73.22;99551.47;4941597;29;20043;-87
2023/04/29 02:26:46;;;;;;;10.23;4.82;;;;;;;4.58;73.91;99564.34;4926078;29;20031;-87
2023/04/29 02:29:11;;;;;;;6.00;4.03;;;;;;;4.45;73.51;99554.66;4942000;29;20102;-86
2023/04/29 02:31:37;;;;;;;5.88;4.38;;;;;;;4.53;73.18;99549.00;4921418;29;20112;-87
2023/04/29 02:34:03;;;;;;;6.47;4.18;;;;;;;4.41;73.32;99545.47;4926174;29;20007;-87
2023/04/29 02:36:29;;;;;;;7.43;4.10;;;;;;;4.39;73.38;99531.56;4934006;29;20111;-87
2023/04/29 02:38:55;;;;;;;6.13;4.50;;;;;;;4.41;73.47;99535.63;4920328;29;20114;-87
2023/04/29 02:41:20;;;;;;;5.35;4.15;;;;;;;4.34;73.56;99542.09;4925311;29;20062;-86
2023/04/29 02:43:47;;;;;;;7.90;4.68;;;;;;;4.31;73.80;99546.00;4926698;29;20070;-87
2023/04/29 02:46:13;;;;;;;8.75;4.32;;;;;;;4.37;74.03;99553.09;4942257;29;20035;-87
2023/04/29 02:48:39;;;;;;;10.05;4.88;;;;;;;4.41;73.81;99546.28;4930694;29;20094;-86
2023/04/29 02:51:05;;;;;;;13.43;4.82;;;;;;;4.38;73.26;99546.75;4925487;29;20518;-87
2023/04/29 02:53:31;;;;;;;7.30;3.80;;;;;;;4.42;73.58;99547.94;4928640;29;20038;-87
2023/04/29 02:55:57;;;;;;;7.80;4.38;;;;;;;4.23;73.53;99531.13;4925669;29;20051;-86
2023/04/29 02:58:22;;;;;;;11.73;4.70;;;;;;;4.20;73.80;99534.22;4925834;29;20039;-86
2023/04/29 03:00:48;;;;;;;9.40;4.68;;;;;;;4.25;73.85;99537.06;4942332;29;20035;-87
2023/04/29 03:03:13;;;;;;;9.90;4.25;;;;;;;4.12;73.69;99529.19;4925554;29;20049;-87
2023/04/29 03:05:38;;;;;;;7.55;4.40;;;;;;;4.13;73.60;99530.00;4941915;29;20046;-87
2023/04/29 03:08:04;;;;;;;7.40;4.32;;;;;;;4.19;73.58;99548.59;4922562;29;20051;-87
2023/04/29 03:10:29;;;;;;;6.15;4.00;;;;;;;4.19;73.62;99545.09;4921829;29;20042;-86
2023/04/29 03:12:55;;;;;;;9.88;4.07;;;;;;;4.09;73.86;99542.97;4937088;29;20050;-87
2023/04/29 03:15:21;;;;;;;5.25;3.85;;;;;;;4.10;73.97;99541.13;4938430;29;20035;-87
2023/04/29 03:17:46;;;;;;;7.53;4.47;;;;;;;4.08;74.06;99541.34;4922795;29;20074;-87
2023/04/29 03:20:12;;;;;;;6.18;4.05;;;;;;;3.97;73.75;99539.41;4924984;29;20035;-86
2023/04/29 03:22:37;;;;;;;8.27;4.55;;;;;;;4.03;74.65;99552.66;4924996;29;20098;-86
2023/04/29 03:25:03;;;;;;;8.32;4.20;;;;;;;4.04;74.61;99543.63;4924473;29;20042;-86
2023/04/29 03:27:29;;;;;;;4.95;3.75;;;;;;;4.12;73.99;99549.72;4925237;29;20035;-86
2023/04/29 03:29:56;;;;;;;12.98;4.10;;;;;;;4.15;73.87;99562.56;4941121;29;20061;-86
2023/04/29 03:32:21;;;;;;;10.02;4.38;;;;;;;4.06;73.33;99540.75;4924669;29;20035;-86
2023/04/29 03:34:48;;;;;;;7.85;4.60;;;;;;;3.99;73.70;99545.34;4941063;29;20055;-86
2023/04/29 03:37:15;;;;;;;5.80;4.20;;;;;;;4.05;74.14;99552.44;4924605;29;20043;-87
2023/04/29 03:39:40;;;;;;;7.57;4.22;;;;;;;4.04;74.49;99548.13;4932597;29;20130;-87
2023/04/29 03:42:06;;;;;;;6.10;3.63;;;;;;;4.19;73.89;99563.75;4924049;29;20062;-86
2023/04/29 03:44:31;;;;;;;12.77;5.13;;;;;;;4.23;73.28;99556.94;4927749;29;20106;-87
2023/04/29 03:46:57;;;;;;;5.65;4.00;;;;;;;4.36;72.58;99564.81;4924667;29;20060;-87
2023/04/29 03:49:22;;;;;;;5.97;4.15;;;;;;;4.57;72.41;99573.38;4924915;29;20038;-86
2023/04/29 03:51:48;;;;;;;6.65;4.75;;;;;;;4.60;72.19;99578.25;4940413;29;20038;-86
2023/04/29 03:54:13;;;;;;;6.13;4.05;;;;;;;4.56;72.86;99577.88;4925130;29;20465;-86
2023/04/29 03:56:39;;;;;;;5.60;4.05;;;;;;;4.50;72.61;99576.13;4941249;29;20138;-86
2023/04/29 03:59:05;;;;;;;5.53;3.75;;;;;;;4.51;72.66;99568.94;4924827;29;20031;-86
2023/04/29 04:01:30;;;;;;;5.93;3.90;;;;;;;4.60;72.64;99581.72;4924710;29;20058;-87
2023/04/29 04:03:56;;;;;;;6.47;4.10;;;;;;;4.50;73.15;99583.31;4924088;29;20058;-86
2023/04/29 04:06:22;;;;;;;7.00;4.43;;;;;;;4.56;72.80;99577.09;4941160;29;20038;-87
2023/04/29 04:08:47;;;;;;;10.60;4.28;;;;;;;4.59;72.70;99587.31;4924421;29;20485;-87
2023/04/29 04:11:14;;;;;;;8.48;5.10;;;;;;;4.62;72.40;99584.19;4940247;29;20031;-87
2023/04/29 04:13:42;;;;;;;5.18;4.00;;;;;;;4.73;72.24;99577.28;4925664;29;20121;-86
2023/04/29 04:16:09;;;;;;;5.60;3.83;;;;;;;4.90;72.09;99593.47;4925108;29;20035;-86
2023/04/29 04:18:35;;;;;;;7.50;4.38;;;;;;;4.86;72.32;99575.25;4925183;29;20043;-86
2023/04/29 04:21:10;;;;;;;6.93;4.20;;;;;;;5.10;71.55;99587.88;4923881;29;20066;-87
2023/04/29 04:23:39;;;;;;;6.55;4.63;;;;;;;5.13;71.71;99582.09;4924434;29;20556;-86
2023/04/29 04:26:04;;;;;;;5.88;4.07;;;;;;;5.24;71.48;99573.28;4924117;29;20085;-87
2023/04/29 04:28:30;;;;;;;8.30;3.88;;;;;;;5.36;70.65;99576.00;4924972;29;20122;-87
2023/04/29 04:30:55;;;;;;;7.00;4.20;;;;;;;5.58;69.40;99578.91;4924376;29;20042;-86
2023/04/29 04:33:21;;;;;;;10.50;4.13;;;;;;;5.72;69.18;99579.53;4940540;29;20038;-86
2023/04/29 04:35:47;;;;;;;8.57;4.13;;;;;;;5.83;67.92;99568.84;4923969;29;20094;-86
2023/04/29 04:38:12;;;;;;;6.88;3.78;;;;;;;6.07;67.37;99591.06;4923488;29;20106;-86
2023/04/29 04:40:41;;;;;;;4.15;3.38;;;;;;;6.12;66.89;99578.84;4932834;29;20495;-86
2023/04/29 04:43:07;;;;;;;4.05;3.30;;;;;;;6.26;66.69;99581.03;4904471;29;20095;-87
2023/04/29 04:45:33;;;;;;;5.30;3.63;;;;;;;6.33;66.61;99574.75;4921101;29;20450;-86
2023/04/29 04:47:59;;;;;;;8.05;4.22;;;;;;;6.44;66.06;99574.72;4905163;29;20076;-86
2023/04/29 04:50:27;;;;;;;6.82;3.88;;;;;;;6.66;65.51;99582.09;4908396;29;20043;-88
2023/04/29 04:52:54;;;;;;;8.02;5.07;;;;;;;6.65;65.35;99583.97;4923600;29;20136;-86
2023/04/29 04:55:19;;;;;;;5.15;3.90;;;;;;;6.76;65.02;99573.47;4927347;29;20039;-88
2023/04/29 04:57:45;;;;;;;5.97;3.92;;;;;;;6.93;64.58;99574.34;4927985;29;20050;-86
2023/04/29 05:00:11;;;;;;;10.35;4.57;;;;;;;6.98;64.21;99570.94;4927644;29;20039;-87
2023/04/29 05:02:36;;;;;;;9.35;4.18;;;;;;;7.12;64.31;99580.31;4927643;29;20035;-88
2023/04/29 05:05:03;;;;;;;8.80;4.00;;;;;;;7.21;64.38;99581.53;4943923;29;20042;-87
2023/04/29 05:07:29;;;;;;;8.32;4.75;;;;;;;7.33;64.57;99586.84;4928160;29;20035;-87
2023/04/29 05:09:54;;;;;;;8.32;4.85;;;;;;;7.22;63.75;99569.78;4926905;29;20023;-87
2023/04/29 05:12:20;;;;;;;9.27;5.32;;;;;;;7.33;64.26;99567.28;4927813;29;20027;-87
2023/04/29 05:14:45;;;;;;;8.13;5.50;;;;;;;7.43;63.93;99570.13;4928080;29;20217;-87
2023/04/29 05:17:10;;;;;;;8.32;5.07;;;;;;;7.67;62.94;99570.75;4921314;29;20043;-88
2023/04/29 05:19:36;;;;;;;16.15;5.32;;;;;;;7.77;63.66;99575.47;4914144;29;20042;-87
2023/04/29 05:22:01;;;;;;;9.30;6.15;;;;;;;7.94;62.43;99587.00;4943223;29;20043;-86
2023/04/29 05:24:29;;;;;;;13.13;6.32;;;;;;;7.87;62.38;99573.75;4926366;29;20084;-86
2023/04/29 05:26:54;;;;;;;16.95;6.80;;;;;;;7.92;61.89;99569.53;4927409;29;20031;-87
2023/04/29 05:29:20;;;;;;;10.10;6.72;;;;;;;7.99;62.22;99572.84;4942733;29;20449;-87
2023/04/29 05:31:45;;;;;;;10.95;7.07;;;;;;;8.04;62.16;99565.69;4927873;29;20027;-87
2023/04/29 05:34:11;;;;;;;19.33;8.23;;;;;;;8.17;61.97;99561.03;4928797;29;20031;-87
2023/04/29 05:36:36;;;;;;;13.07;7.00;;;;;;;8.32;61.86;99547.00;4921074;29;20043;-86
2023/04/29 05:39:02;;;;;;;14.05;7.10;;;;;;;8.58;61.34;99558.91;4927025;29;20525;-86
2023/04/29 05:41:27;;;;;;;11.88;6.93;;;;;;;8.70;60.21;99555.00;4914098;29;20039;-87
2023/04/29 05:43:53;;;;;;;11.18;6.25;;;;;;;8.81;57.91;99550.56;4926422;29;20042;-87
2023/04/29 05:46:19;;;;;;;10.90;6.32;;;;;;;9.00;58.05;99556.38;4941822;29;20043;-87
2023/04/29 05:48:45;;;;;;;10.02;6.15;;;;;;;8.94;59.13;99554.72;4926247;29;20098;-87
2023/04/29 05:51:11;;;;;;;9.18;5.32;;;;;;;9.06;57.10;99550.00;4926552;29;20035;-89
2023/04/29 05:53:37;;;;;;;9.70;5.97;;;;;;;9.23;57.31;99562.53;4942114;29;20035;-87
2023/04/29 05:56:07;;;;;;;10.45;5.75;;;;;;;9.27;57.41;99561.75;4927666;29;20031;-88
2023/04/29 05:58:32;;;;;;;9.70;5.70;;;;;;;9.26;57.33;99546.72;4933626;29;20039;-88
2023/04/29 06:00:57;;;;;;;9.52;6.10;;;;;;;9.27;58.50;99553.69;4928692;29;20046;-87
2023/04/29 06:03:23;;;;;;;11.45;5.32;;;;;;;9.11;59.56;99557.31;4940888;29;20039;-88
2023/04/29 06:05:49;;;;;;;11.02;5.85;;;;;;;9.03;59.62;99557.78;4925159;29;20039;-87
2023/04/29 06:08:14;;;;;;;10.48;6.25;;;;;;;9.12;58.40;99555.44;4934643;29;20442;-87
2023/04/29 06:10:40;;;;;;;12.55;8.43;;;;;;;9.25;58.60;99549.63;4927240;29;20039;-87
2023/04/29 06:13:05;;;;;;;10.40;6.38;;;;;;;9.44;57.05;99550.91;4925600;29;20426;-87
2023/04/29 06:15:31;;;;;;;9.73;6.25;;;;;;;9.42;58.02;99549.50;4923154;29;20509;-88
2023/04/29 06:17:56;;;;;;;9.75;6.05;;;;;;;9.31;58.42;99545.94;4926375;29;20075;-87
2023/04/29 06:20:22;;;;;;;11.05;6.00;;;;;;;9.57;57.25;99552.34;4926439;29;20039;-88
2023/04/29 06:22:48;;;;;;;12.02;7.00;;;;;;;9.57;57.53;99552.34;4926012;29;20039;-86
2023/04/29 06:25:13;;;;;;;16.05;6.97;;;;;;;9.58;57.79;99555.84;4925907;29;20375;-87
2023/04/29 06:27:39;;;;;;;8.50;5.88;;;;;;;9.63;58.14;99556.69;4941328;29;20155;-86
2023/04/29 06:30:05;;;;;;;10.77;6.20;;;;;;;9.55;58.71;99550.97;4925365;29;20047;-86
2023/04/29 06:32:31;;;;;;;10.93;6.32;;;;;;;9.66;57.93;99550.78;4925957;29;20031;-87
2023/04/29 06:34:56;;;;;;;10.45;6.15;;;;;;;9.66;58.09;99536.53;4926181;29;20067;-87
2023/04/29 06:37:21;;;;;;;9.45;6.07;;;;;;;9.75;57.58;99545.72;4925838;29;20043;-87
2023/04/29 06:39:47;;;;;;;10.63;5.80;;;;;;;9.76;57.60;99550.06;4925206;29;20086;-86
2023/04/29 06:42:13;;;;;;;14.88;6.53;;;;;;;9.86;57.39;99546.63;4925681;29;20038;-86
2023/04/29 06:44:38;;;;;;;10.55;6.00;;;;;;;9.90;57.38;99540.47;4925782;29;20035;-86
2023/04/29 06:47:03;;;;;;;15.43;6.22;;;;;;;9.91;57.42;99530.50;4926037;29;20051;-87
2023/04/29 06:49:29;;;;;;;11.05;6.07;;;;;;;10.23;56.38;99524.22;4940682;29;20529;-87
2023/04/29 06:51:55;;;;;;;10.43;5.70;;;;;;;10.45;56.15;99532.94;4934379;29;20043;-87
2023/04/29 06:54:20;;;;;;;8.27;5.80;;;;;;;10.68;55.63;99533.56;4941944;29;20039;-87
2023/04/29 06:56:47;;;;;;;13.60;5.88;;;;;;;10.86;55.58;99526.88;4926063;29;20098;-87
2023/04/29 06:59:14;;;;;;;7.88;5.18;;;;;;;11.04;56.11;99518.31;4930048;29;20035;-87
2023/04/29 07:01:39;;;;;;;8.52;5.10;;;;;;;11.19;54.52;99514.00;4924582;29;20031;-87
2023/04/29 07:04:05;;;;;;;8.77;4.55;;;;;;;11.21;53.91;99506.47;4925111;29;20046;-87
2023/04/29 07:06:30;;;;;;;7.05;4.15;;;;;;;11.55;53.08;99512.09;4926277;29;20067;-86
2023/04/29 07:08:56;;;;;;;5.13;3.70;;;;;;;11.72;51.26;99509.09;4940773;29;20030;-86
2023/04/29 07:11:23;;;;;;;6.25;3.58;;;;;;;11.76;50.17;99501.28;4925988;29;20050;-89
2023/04/29 07:13:50;;;;;;;4.38;3.13;;;;;;;12.05;49.21;99505.00;4925368;29;20031;-89
2023/04/29 07:16:17;;;;;;;10.57;3.42;;;;;;;12.18;48.48;99489.31;4925815;29;20046;-89
2023/04/29 07:18:43;;;;;;;5.10;2.88;;;;;;;12.33;46.85;99487.34;4925349;29;20039;-88
2023/04/29 07:21:09;;;;;;;4.90;3.03;;;;;;;12.58;44.14;99499.13;4925542;29;20027;-88
2023/04/29 07:23:35;;;;;;;5.30;2.67;;;;;;;12.74;45.05;99494.41;4940130;29;20026;-89
2023/04/29 07:26:10;;;;;;;4.47;2.50;;;;;;;12.89;43.61;99485.44;4925409;29;20494;-88
2023/04/29 07:28:36;;;;;;;3.78;2.70;;;;;;;12.95;43.04;99470.78;4940780;29;20526;-88
2023/04/29 07:31:01;;;;;;;8.43;2.60;;;;;;;13.13;42.53;99477.38;4925266;29;20175;-88
2023/04/29 07:33:27;;;;;;;5.10;2.70;;;;;;;13.19;42.08;99494.38;4917400;29;20031;-88
2023/04/29 07:35:53;;;;;;;5.75;2.75;;;;;;;13.39;41.23;99491.56;4925056;29;20038;-88
2023/04/29 07:38:21;;;;;;;3.90;2.72;;;;;;;13.52;41.15;99490.06;4923969;29;20094;-87
2023/04/29 07:40:46;;;;;;;6.00;3.15;;;;;;;13.52;40.70;99490.06;4939894;29;20428;-87
2023/04/29 07:43:12;;;;;;;8.20;2.80;;;;;;;13.68;39.99;99494.25;4939430;29;20031;-87
2023/04/29 07:45:38;;;;;;;11.02;2.92;;;;;;;13.76;40.05;99492.81;4931824;29;20023;-87
2023/04/29 07:48:04;;;;;;;4.60;2.50;;;;;;;13.84;38.79;99478.66;4939256;29;20482;-88
2023/04/29 07:50:30;;;;;;;3.47;2.20;;;;;;;13.99;38.12;99493.13;4939972;29;20037;-87
2023/04/29 07:52:56;;;;;;;3.38;2.47;;;;;;;14.27;37.61;99486.81;4940758;29;20456;-87
2023/04/29 07:55:22;;;;;;;4.72;2.60;;;;;;;14.45;38.08;99485.25;4940668;29;20066;-87
2023/04/29 07:57:47;;;;;;;4.38;2.60;;;;;;;14.53;34.01;99475.66;4924245;29;20059;-88
2023/04/29 08:00:13;;;;;;;5.72;2.50;;;;;;;14.68;34.47;99483.59;4924798;29;20035;-88
2023/04/29 08:02:39;;;;;;;6.90;2.65;;;;;;;14.70;35.91;99481.41;4925242;29;20126;-87
2023/04/29 08:05:04;;;;;;;4.68;2.35;;;;;;;14.75;34.53;99484.06;4924832;29;20039;-86
2023/04/29 08:07:30;;;;;;;3.30;2.20;;;;;;;14.64;34.69;99465.50;4924234;29;20061;-87
2023/04/29 08:09:55;;;;;;;7.05;2.85;;;;;;;14.64;36.51;99463.59;4924148;29;20038;-88
2023/04/29 08:12:21;;;;;;;3.80;2.53;;;;;;;14.70;37.04;99464.34;4924527;29;20031;-87
2023/04/29 08:14:46;;;;;;;4.65;2.50;;;;;;;14.71;36.90;99464.06;4940700;29;20031;-85
2023/04/29 08:17:14;;;;;;;8.30;2.67;;;;;;;14.88;36.74;99447.25;4940686;29;20044;-86
2023/04/29 08:19:40;;;;;;;4.50;2.60;;;;;;;14.73;35.46;99459.16;4923856;29;20035;-87
2023/04/29 08:22:06;;;;;;;5.63;2.35;;;;;;;14.79;35.72;99462.56;4924023;29;20043;-86
2023/04/29 08:24:32;;;;;;;5.57;2.47;;;;;;;15.02;35.73;99458.13;4923749;29;20121;-87
2023/04/29 08:26:58;;;;;;;6.60;2.50;;;;;;;15.06;36.08;99450.22;4940124;29;20023;-87
2023/04/29 08:29:24;;;;;;;4.22;2.72;;;;;;;15.13;35.83;99454.19;4942904;29;20078;-87
2023/04/29 08:31:49;;;;;;;3.03;2.22;;;;;;;15.23;35.24;99450.50;4927660;29;20383;-87
2023/04/29 08:34:15;;;;;;;3.63;2.50;;;;;;;15.18;34.90;99458.72;4928007;29;20134;-86
2023/04/29 08:36:40;;;;;;;3.55;2.30;;;;;;;15.25;35.72;99442.03;4927732;29;20047;-88
2023/04/29 08:39:06;;;;;;;5.40;2.50;;;;;;;15.42;35.59;99445.00;4926548;28;20039;-87
2023/04/29 08:41:32;;;;;;;3.88;2.08;;;;;;;15.32;35.83;99418.06;4942968;29;20535;-86
2023/04/29 08:43:59;;;;;;;3.35;2.15;;;;;;;15.50;36.71;99429.94;4926765;29;20039;-87
2023/04/29 08:46:25;;;;;;;8.35;2.63;;;;;;;15.57;35.84;99433.88;4926344;29;20134;-87
2023/04/29 08:48:51;;;;;;;4.20;2.42;;;;;;;15.46;35.67;99424.31;4926550;29;20039;-88
2023/04/29 08:51:16;;;;;;;6.28;2.53;;;;;;;15.62;35.11;99443.03;4926587;29;20421;-87
2023/04/29 08:53:42;;;;;;;5.57;2.13;;;;;;;15.65;34.80;99434.28;4917756;28;20098;-86
2023/04/29 08:56:11;;;;;;;2.97;2.20;;;;;;;15.65;34.02;99443.22;4942411;29;20035;-86
2023/04/29 08:58:37;;;;;;;4.47;2.17;;;;;;;15.76;33.68;99430.28;4925838;29;20052;-87
2023/04/29 09:01:02;;;;;;;5.15;3.83;;;;;;;15.69;33.49;99432.59;4926474;29;20039;-88
2023/04/29 09:03:28;;;;;;;4.32;2.42;;;;;;;15.80;33.79;99452.22;4920762;29;20048;-87
2023/04/29 09:05:54;;;;;;;4.38;2.28;;;;;;;15.83;34.10;99440.75;4953043;29;20043;-87
2023/04/29 09:08:23;;;;;;;5.75;2.25;;;;;;;15.78;34.41;99438.94;4912172;29;20122;-86
2023/04/29 09:10:49;;;;;;;7.35;2.38;;;;;;;15.68;34.68;99431.75;4889135;29;20042;-87
2023/04/29 09:13:30;;;;;;;4.30;2.50;;;;;;;15.56;33.50;99416.00;4888614;29;20522;-87
2023/04/29 09:15:55;;;;;;;5.13;2.50;;;;;;;15.65;33.71;99437.81;4903768;29;20106;-87
2023/04/29 09:18:46;;;;;;;4.90;2.20;;;;;;;15.89;33.63;99442.25;4888576;29;20044;-88
2023/04/29 09:21:19;;;;;;;4.68;2.00;;;;;;;15.67;33.82;99415.78;4923359;29;20094;-86
2023/04/29 09:23:47;;;;;;;2.90;2.10;;;;;;;15.76;33.84;99422.16;4908810;29;20088;-87
2023/04/29 09:26:13;;;;;;;5.78;2.78;;;;;;;15.80;34.04;99427.78;4939966;29;20501;-87
2023/04/29 09:28:43;;;;;;;5.65;2.22;;;;;;;15.85;33.66;99428.47;4938819;29;20031;-87
2023/04/29 09:31:10;;;;;;;3.45;2.20;;;;;;;15.91;32.94;99410.16;4923989;29;20046;-88
2023/04/29 09:33:55;;;;;;;5.40;2.60;;;;;;;15.82;34.12;99418.22;4908078;29;20119;-88
2023/04/29 09:36:39;;;;;;;4.00;2.45;;;;;;;15.96;33.71;99413.59;4939746;29;20127;-88
2023/04/29 09:39:11;;;;;;;3.95;2.50;;;;;;;16.00;34.26;99405.66;4928676;29;20096;-87
2023/04/29 09:41:51;;;;;;;4.82;2.50;;;;;;;16.12;33.19;99411.38;4903400;29;20070;-87
2023/04/29 09:44:18;;;;;;;5.80;2.50;;;;;;;16.08;33.28;99412.25;4937240;29;20047;-87
2023/04/29 09:46:43;;;;;;;6.28;2.70;;;;;;;15.85;32.84;99406.75;4904704;29;20043;-87
2023/04/29 09:49:39;;;;;;;3.42;2.10;;;;;;;16.06;32.42;99401.72;4889402;29;20079;-87
2023/04/29 09:52:15;;;;;;;4.35;2.10;;;;;;;15.95;32.30;99390.25;4904612;29;20047;-87
2023/04/29 09:54:42;;;;;;;4.75;2.10;;;;;;;15.93;32.89;99397.91;4905238;29;20028;-88
2023/04/29 09:57:08;;;;;;;5.03;2.78;;;;;;;16.17;32.58;99394.94;4904041;29;20122;-88
2023/04/29 09:59:38;;;;;;;5.32;2.45;;;;;;;16.05;32.26;99391.16;4888724;29;20036;-87
2023/04/29 10:02:19;;;;;;;3.60;2.15;;;;;;;16.14;31.91;99392.03;4919385;29;20047;-87
2023/04/29 10:04:46;;;;;;;3.23;2.00;;;;;;;15.98;31.88;99374.44;4922053;29;20150;-87
2023/04/29 10:07:18;;;;;;;7.10;2.72;;;;;;;16.09;32.49;99384.00;4907955;29;20036;-87
2023/04/29 10:09:46;;;;;;;7.22;2.50;;;;;;;16.16;31.82;99390.63;4908456;29;20051;-87
2023/04/29 10:12:12;;;;;;;4.82;2.95;;;;;;;16.16;31.74;99382.50;4907385;29;20082;-88
2023/04/29 10:14:50;;;;;;;4.57;2.55;;;;;;;16.06;31.46;99374.56;4906822;29;20375;-88
2023/04/29 10:17:17;;;;;;;19.08;3.05;;;;;;;16.20;31.41;99384.59;4923372;29;20044;-87
2023/04/29 10:19:46;;;;;;;5.25;2.58;;;;;;;16.26;31.46;99388.78;4923462;29;20067;-86
2023/04/29 10:22:18;;;;;;;4.38;2.33;;;;;;;16.16;30.92;99378.94;4938508;29;20082;-86
2023/04/29 10:24:43;;;;;;;5.60;2.42;;;;;;;16.01;31.12;99363.00;4922816;29;20510;-86
2023/04/29 10:27:11;;;;;;;5.10;2.20;;;;;;;16.17;30.99;99375.94;4921788;29;20042;-86
2023/04/29 10:29:37;;;;;;;4.78;2.42;;;;;;;16.29;31.17;99377.31;4907168;29;20036;-86
2023/04/29 10:32:03;;;;;;;7.57;2.10;;;;;;;16.26;30.41;99381.44;4907206;29;20645;-87
2023/04/29 10:34:30;;;;;;;3.92;1.98;;;;;;;16.30;30.37;99387.06;4907212;29;20067;-88
2023/04/29 10:36:56;;;;;;;5.72;2.03;;;;;;;16.28;30.53;99381.94;4922680;29;20485;-86
2023/04/29 10:39:39;;;;;;;4.78;2.30;;;;;;;16.22;29.90;99366.06;4906315;29;20038;-86
2023/04/29 10:42:04;;;;;;;5.95;2.40;;;;;;;16.37;29.61;99373.84;4922146;29;20038;-87
2023/04/29 10:44:30;;;;;;;3.40;1.98;;;;;;;16.35;30.72;99363.31;4920776;29;20115;-87
2023/04/29 10:47:17;;;;;;;4.45;2.20;;;;;;;16.12;30.66;99383.38;4921553;29;20039;-87
2023/04/29 10:50:00;;;;;;;3.78;2.08;;;;;;;16.23;31.12;99382.06;4935277;29;20066;-87
2023/04/29 10:52:26;;;;;;;5.70;2.20;;;;;;;16.24;30.57;99372.00;4907332;29;20039;-87
2023/04/29 10:55:02;;;;;;;2.85;1.80;;;;;;;16.34;30.30;99372.56;4906765;29;20023;-89
2023/04/29 10:57:28;;;;;;;4.40;1.80;;;;;;;16.18;29.51;99379.44;4906976;29;20098;-87
2023/04/29 10:59:53;;;;;;;4.20;1.90;;;;;;;16.16;30.27;99368.09;4912849;29;20040;-88
2023/04/29 11:02:19;;;;;;;3.70;2.13;;;;;;;16.23;30.12;99365.75;4905598;29;20422;-87
2023/04/29 11:05:11;;;;;;;4.05;2.20;;;;;;;16.38;29.92;99371.97;4936104;29;20337;-88
2023/04/29 11:07:36;;;;;;;4.10;1.92;;;;;;;16.30;30.38;99368.84;4922404;29;20051;-87
2023/04/29 11:10:02;;;;;;;3.22;1.98;;;;;;;16.46;30.47;99363.88;4922135;29;20036;-87
2023/04/29 11:12:27;;;;;;;3.00;1.92;;;;;;;16.43;30.39;99356.31;4922351;29;20047;-90
2023/04/29 11:15:01;;;;;;;4.18;2.30;;;;;;;16.56;30.35;99371.00;4922157;29;20031;-87
2023/04/29 11:17:27;;;;;;;4.10;2.28;;;;;;;16.65;30.61;99360.97;4923889;29;20043;-87
2023/04/29 11:19:54;;;;;;;4.40;2.15;;;;;;;16.62;30.72;99355.34;4922662;29;20415;-87
2023/04/29 11:22:26;;;;;;;6.00;2.00;;;;;;;16.93;30.27;99371.75;4922243;29;20043;-88
2023/04/29 11:24:54;;;;;;;5.55;2.97;;;;;;;16.78;29.86;99356.59;4922001;29;20047;-89
2023/04/29 11:27:24;;;;;;;3.25;1.80;;;;;;;16.91;29.24;99357.66;4954613;29;20039;-87
2023/04/29 11:29:49;;;;;;;3.80;2.20;;;;;;;16.90;29.24;99348.69;4921477;29;20039;-89
2023/04/29 11:32:15;;;;;;;4.22;2.10;;;;;;;16.97;29.87;99353.69;4921957;29;20095;-89
2023/04/29 11:34:41;;;;;;;3.13;2.28;;;;;;;17.29;29.60;99359.94;4921958;29;20095;-89
2023/04/29 11:37:06;;;;;;;8.55;3.72;;;;;;;17.06;29.23;99348.31;4922023;29;20097;-88